sensor_id;sensor_type;location;lat;lon;timestamp;pressure;altitude;pressure_sealevel;temperature;humidity
58223;BME280;44020;50.890;15.796;2023-04-26T00:04:55;97291.04;;;4.95;66.43
58223;BME280;44020;50.890;15.796;2023-04-26T00:21:39;97294.75;;;4.95;64.66
58223;BME280;44020;50.890;15.796;2023-04-26T00:35:05;97303.11;;;4.83;64.40
58223;BME280;44020;50.890;15.796;2023-04-26T00:47:58;97313.73;;;4.72;64.33
58223;BME280;44020;50.890;15.796;2023-04-26T01:01:27;97319.15;;;4.59;64.17
58223;BME280;44020;50.890;15.796;2023-04-26T01:25:50;97330.42;;;4.46;64.80
58223;BME280;44020;50.890;15.796;2023-04-26T01:32:15;97329.41;;;4.42;64.84
58223;BME280;44020;50.890;15.796;2023-04-26T01:42:14;97335.55;;;4.31;65.10
58223;BME280;44020;50.890;15.796;2023-04-26T01:48:12;97337.31;;;4.25;65.34
58223;BME280;44020;50.890;15.796;2023-04-26T02:01:26;97340.70;;;4.10;65.84
58223;BME280;44020;50.890;15.796;2023-04-26T02:14:15;97345.66;;;3.94;66.05
58223;BME280;44020;50.890;15.796;2023-04-26T02:20:51;97344.58;;;3.84;66.34
58223;BME280;44020;50.890;15.796;2023-04-26T02:33:57;97348.91;;;3.78;67.15
58223;BME280;44020;50.890;15.796;2023-04-26T02:44:21;97344.72;;;3.78;66.93
58223;BME280;44020;50.890;15.796;2023-04-26T02:50:51;97343.37;;;3.73;67.18
58223;BME280;44020;50.890;15.796;2023-04-26T03:01:00;97341.46;;;3.69;67.37
58223;BME280;44020;50.890;15.796;2023-04-26T03:07:11;97349.43;;;3.68;67.38
58223;BME280;44020;50.890;15.796;2023-04-26T03:10:11;97348.02;;;3.68;67.46
58223;BME280;44020;50.890;15.796;2023-04-26T03:13:30;97351.67;;;3.65;67.62
58223;BME280;44020;50.890;15.796;2023-04-26T03:46:22;97378.71;;;3.54;68.76
58223;BME280;44020;50.890;15.796;2023-04-26T03:49:44;97385.70;;;3.55;68.84
58223;BME280;44020;50.890;15.796;2023-04-26T03:56:16;97387.61;;;3.51;69.38
58223;BME280;44020;50.890;15.796;2023-04-26T04:01:36;97396.42;;;3.47;69.51
58223;BME280;44020;50.890;15.796;2023-04-26T04:04:14;97398.84;;;3.44;69.36
58223;BME280;44020;50.890;15.796;2023-04-26T04:10:12;97407.92;;;3.42;69.36
58223;BME280;44020;50.890;15.796;2023-04-26T04:13:23;97410.41;;;3.41;69.68
58223;BME280;44020;50.890;15.796;2023-04-26T04:22:16;97421.45;;;3.34;69.44
58223;BME280;44020;50.890;15.796;2023-04-26T04:28:43;97421.44;;;3.34;69.44
58223;BME280;44020;50.890;15.796;2023-04-26T04:32:12;97425.29;;;3.31;69.57
58223;BME280;44020;50.890;15.796;2023-04-26T04:35:18;97426.02;;;3.30;69.43
58223;BME280;44020;50.890;15.796;2023-04-26T04:38:27;97425.42;;;3.28;69.54
58223;BME280;44020;50.890;15.796;2023-04-26T04:44:17;97432.59;;;3.29;69.39
58223;BME280;44020;50.890;15.796;2023-04-26T04:47:19;97432.30;;;3.31;69.45
58223;BME280;44020;50.890;15.796;2023-04-26T04:49:52;97436.13;;;3.31;69.43
58223;BME280;44020;50.890;15.796;2023-04-26T04:52:34;97437.48;;;3.29;69.62
58223;BME280;44020;50.890;15.796;2023-04-26T04:55:32;97438.83;;;3.30;69.48
58223;BME280;44020;50.890;15.796;2023-04-26T04:58:47;97438.30;;;3.30;69.58
58223;BME280;44020;50.890;15.796;2023-04-26T05:01:35;97444.40;;;3.31;69.44
58223;BME280;44020;50.890;15.796;2023-04-26T05:04:23;97445.05;;;3.28;69.46
58223;BME280;44020;50.890;15.796;2023-04-26T05:07:11;97449.73;;;3.30;69.69
58223;BME280;44020;50.890;15.796;2023-04-26T05:09:44;97450.02;;;3.27;69.50
58223;BME280;44020;50.890;15.796;2023-04-26T05:12:22;97454.05;;;3.28;69.55
58223;BME280;44020;50.890;15.796;2023-04-26T05:14:57;97454.99;;;3.26;69.64
58223;BME280;44020;50.890;15.796;2023-04-26T05:17:34;97457.40;;;3.27;69.64
58223;BME280;44020;50.890;15.796;2023-04-26T05:20:05;97452.41;;;3.25;69.73
58223;BME280;44020;50.890;15.796;2023-04-26T05:22:38;97454.80;;;3.26;69.92
58223;BME280;44020;50.890;15.796;2023-04-26T05:25:12;97454.30;;;3.30;69.92
58223;BME280;44020;50.890;15.796;2023-04-26T05:27:46;97454.55;;;3.32;70.18
58223;BME280;44020;50.890;15.796;2023-04-26T05:33:18;97457.78;;;3.34;70.01
58223;BME280;44020;50.890;15.796;2023-04-26T05:41:50;97455.90;;;3.45;70.10
58223;BME280;44020;50.890;15.796;2023-04-26T05:44:31;97458.93;;;3.47;70.05
58223;BME280;44020;50.890;15.796;2023-04-26T05:47:19;97463.67;;;3.51;70.16
58223;BME280;44020;50.890;15.796;2023-04-26T05:50:14;97469.80;;;3.56;70.11
58223;BME280;44020;50.890;15.796;2023-04-26T05:52:53;97469.12;;;3.59;70.17
58223;BME280;44020;50.890;15.796;2023-04-26T05:55:44;97470.20;;;3.59;70.23
58223;BME280;44020;50.890;15.796;2023-04-26T06:01:50;97477.60;;;3.62;70.10
58223;BME280;44020;50.890;15.796;2023-04-26T06:07:50;97477.51;;;3.64;69.95
58223;BME280;44020;50.890;15.796;2023-04-26T06:13:38;97479.51;;;3.74;69.87
58223;BME280;44020;50.890;15.796;2023-04-26T06:22:49;97478.85;;;3.88;69.60
58223;BME280;44020;50.890;15.796;2023-04-26T06:25:43;97474.48;;;3.91;69.58
58223;BME280;44020;50.890;15.796;2023-04-26T06:28:34;97475.92;;;3.98;69.14
58223;BME280;44020;50.890;15.796;2023-04-26T06:31:33;97476.83;;;3.97;68.81
58223;BME280;44020;50.890;15.796;2023-04-26T06:37:03;97482.01;;;3.99;68.50
58223;BME280;44020;50.890;15.796;2023-04-26T06:42:58;97480.45;;;4.02;68.19
58223;BME280;44020;50.890;15.796;2023-04-26T06:45:52;97477.64;;;4.06;68.15
58223;BME280;44020;50.890;15.796;2023-04-26T06:52:17;97477.14;;;4.20;68.01
58223;BME280;44020;50.890;15.796;2023-04-26T06:55:07;97478.52;;;4.28;68.00
58223;BME280;44020;50.890;15.796;2023-04-26T06:57:51;97488.14;;;4.36;67.30
58223;BME280;44020;50.890;15.796;2023-04-26T07:00:31;97484.80;;;4.36;66.35
58223;BME280;44020;50.890;15.796;2023-04-26T07:03:52;97482.16;;;4.36;66.22
58223;BME280;44020;50.890;15.796;2023-04-26T07:06:15;97477.60;;;4.43;65.78
58223;BME280;44020;50.890;15.796;2023-04-26T07:09:14;97482.58;;;4.49;65.09
58223;BME280;44020;50.890;15.796;2023-04-26T07:12:25;97485.95;;;4.49;65.14
58223;BME280;44020;50.890;15.796;2023-04-26T07:15:05;97484.28;;;4.50;64.87
58223;BME280;44020;50.890;15.796;2023-04-26T07:20:31;97480.38;;;4.54;64.61
58223;BME280;44020;50.890;15.796;2023-04-26T07:23:38;97480.71;;;4.58;65.17
58223;BME280;44020;50.890;15.796;2023-04-26T07:26:54;97483.89;;;4.65;65.00
58223;BME280;44020;50.890;15.796;2023-04-26T07:30:01;97483.10;;;4.71;64.45
58223;BME280;44020;50.890;15.796;2023-04-26T07:32:35;97487.63;;;4.71;64.35
58223;BME280;44020;50.890;15.796;2023-04-26T07:35:05;97488.98;;;4.72;63.97
58223;BME280;44020;50.890;15.796;2023-04-26T07:37:50;97489.16;;;4.72;63.79
58223;BME280;44020;50.890;15.796;2023-04-26T07:40:38;97487.96;;;4.79;64.17
58223;BME280;44020;50.890;15.796;2023-04-26T07:43:26;97492.31;;;4.94;63.72
58223;BME280;44020;50.890;15.796;2023-04-26T07:46:35;97493.18;;;4.97;63.19
58223;BME280;44020;50.890;15.796;2023-04-26T07:49:23;97499.91;;;4.97;63.52
58223;BME280;44020;50.890;15.796;2023-04-26T07:51:55;97501.70;;;4.96;62.62
58223;BME280;44020;50.890;15.796;2023-04-26T07:54:47;97502.97;;;4.95;61.22
58223;BME280;44020;50.890;15.796;2023-04-26T07:57:25;97496.95;;;4.92;61.22
58223;BME280;44020;50.890;15.796;2023-04-26T07:59:55;97494.56;;;5.01;61.61
58223;BME280;44020;50.890;15.796;2023-04-26T08:05:59;97502.82;;;5.19;59.54
58223;BME280;44020;50.890;15.796;2023-04-26T08:08:37;97510.55;;;5.16;59.28
58223;BME280;44020;50.890;15.796;2023-04-26T08:14:30;97506.28;;;5.20;59.58
58223;BME280;44020;50.890;15.796;2023-04-26T08:17:07;97509.92;;;5.21;59.36
58223;BME280;44020;50.890;15.796;2023-04-26T08:19:38;97509.15;;;5.15;59.13
58223;BME280;44020;50.890;15.796;2023-04-26T08:22:11;97516.27;;;5.11;59.43
58223;BME280;44020;50.890;15.796;2023-04-26T08:24:57;97515.27;;;5.06;59.56
58223;BME280;44020;50.890;15.796;2023-04-26T08:35:58;97512.77;;;5.54;59.22
58223;BME280;44020;50.890;15.796;2023-04-26T08:45:00;97513.39;;;5.75;56.86
58223;BME280;44020;50.890;15.796;2023-04-26T08:48:03;97510.67;;;5.87;55.52
58223;BME280;44020;50.890;15.796;2023-04-26T08:50:58;97508.36;;;5.87;56.20
58223;BME280;44020;50.890;15.796;2023-04-26T08:53:54;97518.20;;;5.88;56.12
58223;BME280;44020;50.890;15.796;2023-04-26T08:56:39;97519.12;;;5.74;56.97
58223;BME280;44020;50.890;15.796;2023-04-26T08:59:13;97523.18;;;5.71;57.11
58223;BME280;44020;50.890;15.796;2023-04-26T09:01:49;97514.11;;;5.72;56.89
58223;BME280;44020;50.890;15.796;2023-04-26T09:04:29;97506.96;;;5.77;57.48
58223;BME280;44020;50.890;15.796;2023-04-26T09:07:16;97510.23;;;5.92;57.12
58223;BME280;44020;50.890;15.796;2023-04-26T09:10:29;97503.87;;;6.05;56.98
58223;BME280;44020;50.890;15.796;2023-04-26T09:13:26;97496.58;;;6.16;55.90
58223;BME280;44020;50.890;15.796;2023-04-26T09:16:04;97499.49;;;6.27;55.27
58223;BME280;44020;50.890;15.796;2023-04-26T09:18:54;97516.09;;;6.30;54.88
58223;BME280;44020;50.890;15.796;2023-04-26T09:21:27;97515.35;;;6.27;54.56
58223;BME280;44020;50.890;15.796;2023-04-26T09:24:50;97513.25;;;6.21;54.96
58223;BME280;44020;50.890;15.796;2023-04-26T09:27:58;97520.69;;;6.17;54.48
58223;BME280;44020;50.890;15.796;2023-04-26T09:31:03;97504.34;;;6.10;54.16
58223;BME280;44020;50.890;15.796;2023-04-26T09:33:57;97506.45;;;6.19;54.51
58223;BME280;44020;50.890;15.796;2023-04-26T09:37:05;97505.08;;;6.31;53.24
58223;BME280;44020;50.890;15.796;2023-04-26T09:39:49;97506.38;;;6.46;53.27
58223;BME280;44020;50.890;15.796;2023-04-26T09:42:20;97502.02;;;6.60;52.54
58223;BME280;44020;50.890;15.796;2023-04-26T09:45:08;97492.85;;;6.72;53.14
58223;BME280;44020;50.890;15.796;2023-04-26T09:47:38;97492.40;;;6.86;53.36
58223;BME280;44020;50.890;15.796;2023-04-26T09:53:26;97511.56;;;6.97;51.73
58223;BME280;44020;50.890;15.796;2023-04-26T09:56:57;97515.09;;;6.91;51.31
58223;BME280;44020;50.890;15.796;2023-04-26T09:59:52;97518.70;;;6.80;50.67
58223;BME280;44020;50.890;15.796;2023-04-26T10:02:32;97513.40;;;6.65;51.23
58223;BME280;44020;50.890;15.796;2023-04-26T10:05:20;97516.64;;;6.61;51.83
58223;BME280;44020;50.890;15.796;2023-04-26T10:07:52;97516.10;;;6.64;51.74
58223;BME280;44020;50.890;15.796;2023-04-26T10:10:37;97509.52;;;6.74;51.66
58223;BME280;44020;50.890;15.796;2023-04-26T10:13:27;97505.48;;;6.86;51.79
58223;BME280;44020;50.890;15.796;2023-04-26T10:16:06;97517.39;;;6.94;50.86
58223;BME280;44020;50.890;15.796;2023-04-26T10:18:53;97515.85;;;6.96;50.15
58223;BME280;44020;50.890;15.796;2023-04-26T10:21:47;97510.61;;;6.95;50.25
58223;BME280;44020;50.890;15.796;2023-04-26T10:24:30;97505.69;;;7.00;50.13
58223;BME280;44020;50.890;15.796;2023-04-26T10:27:10;97507.65;;;7.06;50.00
58223;BME280;44020;50.890;15.796;2023-04-26T10:30:16;97513.33;;;7.03;50.50
58223;BME280;44020;50.890;15.796;2023-04-26T10:36:22;97530.83;;;6.93;49.30
58223;BME280;44020;50.890;15.796;2023-04-26T10:39:45;97524.54;;;6.83;48.94
58223;BME280;44020;50.890;15.796;2023-04-26T10:51:36;97514.20;;;7.12;48.07
58223;BME280;44020;50.890;15.796;2023-04-26T10:54:08;97506.48;;;7.31;48.33
58223;BME280;44020;50.890;15.796;2023-04-26T10:56:52;97502.27;;;7.42;48.59
58223;BME280;44020;50.890;15.796;2023-04-26T11:03:03;97514.48;;;7.48;48.70
58223;BME280;44020;50.890;15.796;2023-04-26T11:05:40;97517.30;;;7.40;49.10
58223;BME280;44020;50.890;15.796;2023-04-26T11:08:35;97521.83;;;7.32;49.68
58223;BME280;44020;50.890;15.796;2023-04-26T11:11:07;97519.08;;;7.27;50.27
58223;BME280;44020;50.890;15.796;2023-04-26T11:13:47;97524.38;;;7.34;50.01
58223;BME280;44020;50.890;15.796;2023-04-26T11:16:16;97521.92;;;7.42;50.38
58223;BME280;44020;50.890;15.796;2023-04-26T11:18:59;97520.89;;;7.59;50.40
58223;BME280;44020;50.890;15.796;2023-04-26T11:21:51;97518.91;;;7.80;50.48
58223;BME280;44020;50.890;15.796;2023-04-26T11:24:39;97516.21;;;7.97;49.03
58223;BME280;44020;50.890;15.796;2023-04-26T11:27:30;97511.30;;;8.08;47.94
58223;BME280;44020;50.890;15.796;2023-04-26T11:33:03;97510.13;;;8.12;47.76
58223;BME280;44020;50.890;15.796;2023-04-26T11:35:43;97508.23;;;8.14;48.19
58223;BME280;44020;50.890;15.796;2023-04-26T11:38:13;97504.45;;;8.24;48.64
58223;BME280;44020;50.890;15.796;2023-04-26T11:43:42;97513.70;;;8.40;47.99
58223;BME280;44020;50.890;15.796;2023-04-26T11:46:13;97511.64;;;8.36;48.40
58223;BME280;44020;50.890;15.796;2023-04-26T11:49:21;97510.18;;;8.34;48.01
58223;BME280;44020;50.890;15.796;2023-04-26T11:51:52;97511.73;;;8.31;48.42
58223;BME280;44020;50.890;15.796;2023-04-26T11:54:49;97519.64;;;8.27;48.00
58223;BME280;44020;50.890;15.796;2023-04-26T11:57:36;97526.20;;;8.19;45.89
58223;BME280;44020;50.890;15.796;2023-04-26T12:00:17;97529.48;;;8.00;45.62
58223;BME280;44020;50.890;15.796;2023-04-26T12:06:15;97535.45;;;7.86;46.10
58223;BME280;44020;50.890;15.796;2023-04-26T12:08:48;97543.40;;;7.84;46.15
58223;BME280;44020;50.890;15.796;2023-04-26T12:11:17;97542.47;;;7.76;46.35
58223;BME280;44020;50.890;15.796;2023-04-26T12:14:09;97542.09;;;7.80;46.84
58223;BME280;44020;50.890;15.796;2023-04-26T12:23:01;97539.09;;;7.79;45.55
58223;BME280;44020;50.890;15.796;2023-04-26T12:26:03;97535.92;;;7.71;45.99
58223;BME280;44020;50.890;15.796;2023-04-26T12:28:33;97534.27;;;7.74;46.42
58223;BME280;44020;50.890;15.796;2023-04-26T12:34:05;97529.16;;;8.25;46.89
58223;BME280;44020;50.890;15.796;2023-04-26T12:36:35;97530.74;;;8.53;46.96
58223;BME280;44020;50.890;15.796;2023-04-26T12:39:27;97522.79;;;8.75;46.50
58223;BME280;44020;50.890;15.796;2023-04-26T12:44:54;97542.95;;;8.64;45.90
58223;BME280;44020;50.890;15.796;2023-04-26T12:47:47;97551.26;;;8.51;46.30
58223;BME280;44020;50.890;15.796;2023-04-26T12:50:18;97553.98;;;8.41;46.28
58223;BME280;44020;50.890;15.796;2023-04-26T12:53:14;97556.85;;;8.24;46.24
58223;BME280;44020;50.890;15.796;2023-04-26T12:55:51;97561.90;;;8.17;46.58
58223;BME280;44020;50.890;15.796;2023-04-26T12:58:18;97559.06;;;8.08;46.13
58223;BME280;44020;50.890;15.796;2023-04-26T13:01:07;97562.60;;;7.94;45.86
58223;BME280;44020;50.890;15.796;2023-04-26T13:03:38;97560.30;;;7.80;46.16
58223;BME280;44020;50.890;15.796;2023-04-26T13:06:28;97556.06;;;7.77;46.93
58223;BME280;44020;50.890;15.796;2023-04-26T13:20:59;97540.36;;;8.61;47.36
58223;BME280;44020;50.890;15.796;2023-04-26T13:24:17;97535.27;;;8.92;46.79
58223;BME280;44020;50.890;15.796;2023-04-26T13:26:55;97531.63;;;9.18;45.79
58223;BME280;44020;50.890;15.796;2023-04-26T13:29:43;97526.48;;;9.41;44.88
58223;BME280;44020;50.890;15.796;2023-04-26T13:32:10;97528.98;;;9.59;44.97
58223;BME280;44020;50.890;15.796;2023-04-26T13:34:39;97526.35;;;9.64;45.10
58223;BME280;44020;50.890;15.796;2023-04-26T13:37:10;97533.35;;;9.57;44.43
58223;BME280;44020;50.890;15.796;2023-04-26T13:39:40;97543.79;;;9.42;43.71
58223;BME280;44020;50.890;15.796;2023-04-26T13:42:08;97542.35;;;9.19;43.81
58223;BME280;44020;50.890;15.796;2023-04-26T13:44:39;97541.89;;;8.97;44.34
58223;BME280;44020;50.890;15.796;2023-04-26T13:47:06;97552.55;;;8.83;44.33
58223;BME280;44020;50.890;15.796;2023-04-26T13:49:34;97567.98;;;8.61;45.04
58223;BME280;44020;50.890;15.796;2023-04-26T13:52:11;97572.96;;;8.38;45.81
58223;BME280;44020;50.890;15.796;2023-04-26T13:54:50;97574.29;;;8.19;45.92
58223;BME280;44020;50.890;15.796;2023-04-26T13:57:24;97578.30;;;8.03;46.12
58223;BME280;44020;50.890;15.796;2023-04-26T13:59:51;97579.08;;;7.93;46.61
58223;BME280;44020;50.890;15.796;2023-04-26T14:02:19;97582.64;;;7.93;46.53
58223;BME280;44020;50.890;15.796;2023-04-26T14:04:50;97571.65;;;7.93;46.73
58223;BME280;44020;50.890;15.796;2023-04-26T14:07:26;97569.89;;;8.07;46.68
58223;BME280;44020;50.890;15.796;2023-04-26T14:10:06;97569.16;;;8.22;46.27
58223;BME280;44020;50.890;15.796;2023-04-26T14:12:50;97566.63;;;8.20;45.54
58223;BME280;44020;50.890;15.796;2023-04-26T14:15:25;97570.88;;;8.15;45.62
58223;BME280;44020;50.890;15.796;2023-04-26T14:17:52;97567.70;;;8.09;45.45
58223;BME280;44020;50.890;15.796;2023-04-26T14:20:20;97569.23;;;8.04;45.62
58223;BME280;44020;50.890;15.796;2023-04-26T14:22:48;97572.15;;;8.02;45.81
58223;BME280;44020;50.890;15.796;2023-04-26T14:25:37;97570.45;;;7.99;46.35
58223;BME280;44020;50.890;15.796;2023-04-26T14:28:12;97570.95;;;7.96;46.72
58223;BME280;44020;50.890;15.796;2023-04-26T14:30:42;97562.25;;;8.03;46.93
58223;BME280;44020;50.890;15.796;2023-04-26T14:33:13;97561.52;;;8.20;46.76
58223;BME280;44020;50.890;15.796;2023-04-26T14:35:50;97552.77;;;8.24;46.49
58223;BME280;44020;50.890;15.796;2023-04-26T14:38:31;97553.64;;;8.24;46.63
58223;BME280;44020;50.890;15.796;2023-04-26T14:43:53;97557.79;;;8.20;46.45
58223;BME280;44020;50.890;15.796;2023-04-26T14:46:20;97559.96;;;8.14;46.43
58223;BME280;44020;50.890;15.796;2023-04-26T14:48:51;97560.41;;;8.06;45.91
58223;BME280;44020;50.890;15.796;2023-04-26T14:51:21;97563.48;;;7.97;46.02
58223;BME280;44020;50.890;15.796;2023-04-26T14:54:12;97567.20;;;7.88;46.40
58223;BME280;44020;50.890;15.796;2023-04-26T14:56:39;97572.08;;;7.84;46.44
58223;BME280;44020;50.890;15.796;2023-04-26T14:59:13;97574.25;;;7.83;46.67
58223;BME280;44020;50.890;15.796;2023-04-26T15:01:44;97578.67;;;7.80;46.91
58223;BME280;44020;50.890;15.796;2023-04-26T15:11:05;97596.27;;;7.52;48.14
58223;BME280;44020;50.890;15.796;2023-04-26T15:14:04;97593.00;;;7.45;48.00
58223;BME280;44020;50.890;15.796;2023-04-26T15:16:35;97586.85;;;7.41;48.26
58223;BME280;44020;50.890;15.796;2023-04-26T15:19:46;97590.95;;;7.41;48.06
58223;BME280;44020;50.890;15.796;2023-04-26T15:25:10;97585.50;;;7.49;48.58
58223;BME280;44020;50.890;15.796;2023-04-26T15:27:48;97587.61;;;7.64;49.01
58223;BME280;44020;50.890;15.796;2023-04-26T15:37:04;97586.30;;;8.20;48.57
58223;BME280;44020;50.890;15.796;2023-04-26T15:43:10;97593.64;;;8.38;47.58
58223;BME280;44020;50.890;15.796;2023-04-26T15:45:55;97590.87;;;8.38;47.21
58223;BME280;44020;50.890;15.796;2023-04-26T15:48:49;97588.44;;;8.40;46.87
58223;BME280;44020;50.890;15.796;2023-04-26T15:51:37;97585.87;;;8.38;46.96
58223;BME280;44020;50.890;15.796;2023-04-26T15:54:17;97587.64;;;8.41;47.02
58223;BME280;44020;50.890;15.796;2023-04-26T15:57:08;97586.42;;;8.35;46.72
58223;BME280;44020;50.890;15.796;2023-04-26T15:59:59;97590.79;;;8.24;47.45
58223;BME280;44020;50.890;15.796;2023-04-26T16:02:27;97595.82;;;8.18;47.21
58223;BME280;44020;50.890;15.796;2023-04-26T16:04:58;97596.75;;;8.13;47.51
58223;BME280;44020;50.890;15.796;2023-04-26T16:10:39;97591.64;;;8.86;47.94
58223;BME280;44020;50.890;15.796;2023-04-26T16:13:10;97590.46;;;9.39;48.45
58223;BME280;44020;50.890;15.796;2023-04-26T16:19:43;97588.67;;;9.94;48.44
58223;BME280;44020;50.890;15.796;2023-04-26T16:22:34;97588.98;;;10.25;48.16
58223;BME280;44020;50.890;15.796;2023-04-26T16:25:05;97589.26;;;10.32;47.94
58223;BME280;44020;50.890;15.796;2023-04-26T16:27:45;97591.26;;;10.41;47.34
58223;BME280;44020;50.890;15.796;2023-04-26T16:30:16;97599.71;;;10.44;45.84
58223;BME280;44020;50.890;15.796;2023-04-26T16:33:04;97600.50;;;10.28;45.42
58223;BME280;44020;50.890;15.796;2023-04-26T16:35:35;97601.01;;;10.03;44.64
58223;BME280;44020;50.890;15.796;2023-04-26T16:38:15;97601.64;;;9.78;45.03
58223;BME280;44020;50.890;15.796;2023-04-26T16:47:55;97603.71;;;9.45;44.17
58223;BME280;44020;50.890;15.796;2023-04-26T16:53:49;97610.61;;;8.97;44.65
58223;BME280;44020;50.890;15.796;2023-04-26T16:56:25;97609.40;;;8.80;44.87
58223;BME280;44020;50.890;15.796;2023-04-26T17:01:51;97615.73;;;8.67;45.19
58223;BME280;44020;50.890;15.796;2023-04-26T17:04:44;97619.92;;;8.57;45.11
58223;BME280;44020;50.890;15.796;2023-04-26T17:07:54;97623.89;;;8.42;45.31
58223;BME280;44020;50.890;15.796;2023-04-26T17:13:49;97631.47;;;8.10;46.02
58223;BME280;44020;50.890;15.796;2023-04-26T17:16:29;97634.06;;;7.97;46.26
58223;BME280;44020;50.890;15.796;2023-04-26T17:21:59;97636.79;;;7.87;47.15
58223;BME280;44020;50.890;15.796;2023-04-26T17:24:58;97640.20;;;7.81;47.15
58223;BME280;44020;50.890;15.796;2023-04-26T17:30:57;97647.45;;;7.59;47.76
58223;BME280;44020;50.890;15.796;2023-04-26T17:34:06;97648.71;;;7.50;48.39
58223;BME280;44020;50.890;15.796;2023-04-26T17:40:30;97655.20;;;7.39;49.16
58223;BME280;44020;50.890;15.796;2023-04-26T17:46:32;97660.13;;;7.33;48.83
58223;BME280;44020;50.890;15.796;2023-04-26T17:49:40;97659.22;;;7.27;48.57
58223;BME280;44020;50.890;15.796;2023-04-26T18:02:41;97666.73;;;7.07;48.93
58223;BME280;44020;50.890;15.796;2023-04-26T18:05:56;97670.58;;;7.05;48.88
58223;BME280;44020;50.890;15.796;2023-04-26T18:11:57;97674.70;;;6.84;48.95
58223;BME280;44020;50.890;15.796;2023-04-26T18:19:01;97679.98;;;6.72;49.22
58223;BME280;44020;50.890;15.796;2023-04-26T18:21:43;97685.65;;;6.66;49.57
58223;BME280;44020;50.890;15.796;2023-04-26T18:28:54;97688.75;;;6.54;49.87
58223;BME280;44020;50.890;15.796;2023-04-26T18:31:39;97692.92;;;6.49;50.25
58223;BME280;44020;50.890;15.796;2023-04-26T18:47:43;97706.80;;;6.43;50.82
58223;BME280;44020;50.890;15.796;2023-04-26T18:54:13;97710.93;;;6.42;51.53
58223;BME280;44020;50.890;15.796;2023-04-26T19:16:49;97718.84;;;6.46;52.51
58223;BME280;44020;50.890;15.796;2023-04-26T19:19:44;97722.63;;;6.44;52.38
58223;BME280;44020;50.890;15.796;2023-04-26T19:22:34;97725.81;;;6.44;52.86
58223;BME280;44020;50.890;15.796;2023-04-26T19:25:38;97725.02;;;6.46;52.73
58223;BME280;44020;50.890;15.796;2023-04-26T19:32:24;97722.35;;;6.46;53.07
58223;BME280;44020;50.890;15.796;2023-04-26T19:34:53;97725.36;;;6.46;53.37
58223;BME280;44020;50.890;15.796;2023-04-26T19:38:03;97724.40;;;6.44;53.70
58223;BME280;44020;50.890;15.796;2023-04-26T19:44:25;97724.83;;;6.36;54.39
58223;BME280;44020;50.890;15.796;2023-04-26T20:02:42;97728.80;;;6.28;55.98
58223;BME280;44020;50.890;15.796;2023-04-26T20:08:32;97730.09;;;6.30;56.28
58223;BME280;44020;50.890;15.796;2023-04-26T20:24:34;97740.55;;;6.19;57.11
58223;BME280;44020;50.890;15.796;2023-04-26T20:34:05;97740.43;;;6.11;57.16
58223;BME280;44020;50.890;15.796;2023-04-26T20:37:46;97742.86;;;6.09;57.16
58223;BME280;44020;50.890;15.796;2023-04-26T20:40:36;97745.85;;;6.05;57.28
58223;BME280;44020;50.890;15.796;2023-04-26T20:43:39;97748.27;;;5.99;57.28
58223;BME280;44020;50.890;15.796;2023-04-26T20:46:08;97751.45;;;5.95;57.46
58223;BME280;44020;50.890;15.796;2023-04-26T20:51:33;97752.36;;;5.88;57.64
58223;BME280;44020;50.890;15.796;2023-04-26T20:55:06;97759.71;;;5.81;57.71
58223;BME280;44020;50.890;15.796;2023-04-26T20:57:48;97761.46;;;5.71;57.97
58223;BME280;44020;50.890;15.796;2023-04-26T21:06:39;97764.23;;;5.51;58.64
58223;BME280;44020;50.890;15.796;2023-04-26T21:09:33;97763.48;;;5.45;58.64
58223;BME280;44020;50.890;15.796;2023-04-26T21:16:40;97762.23;;;5.34;59.10
58223;BME280;44020;50.890;15.796;2023-04-26T21:26:53;97768.39;;;5.27;59.72
58223;BME280;44020;50.890;15.796;2023-04-26T21:47:07;97777.01;;;5.00;60.52
58223;BME280;44020;50.890;15.796;2023-04-26T21:56:56;97779.23;;;4.83;60.74
58223;BME280;44020;50.890;15.796;2023-04-26T22:13:13;97791.75;;;4.48;61.09
58223;BME280;44020;50.890;15.796;2023-04-26T22:20:27;97793.76;;;4.34;61.32
58223;BME280;44020;50.890;15.796;2023-04-26T22:23:09;97796.35;;;4.27;61.35
58223;BME280;44020;50.890;15.796;2023-04-26T22:26:11;97799.98;;;4.20;61.73
58223;BME280;44020;50.890;15.796;2023-04-26T22:28:50;97797.77;;;4.14;61.70
58223;BME280;44020;50.890;15.796;2023-04-26T22:31:41;97799.48;;;4.07;61.95
58223;BME280;44020;50.890;15.796;2023-04-26T22:40:38;97797.56;;;3.86;62.33
58223;BME280;44020;50.890;15.796;2023-04-26T22:49:48;97808.48;;;3.68;62.50
58223;BME280;44020;50.890;15.796;2023-04-26T22:52:30;97813.79;;;3.63;62.74
58223;BME280;44020;50.890;15.796;2023-04-26T22:55:00;97815.96;;;3.57;62.68
58223;BME280;44020;50.890;15.796;2023-04-26T23:04:03;97818.81;;;3.34;62.83
58223;BME280;44020;50.890;15.796;2023-04-26T23:07:15;97821.70;;;3.28;62.98
58223;BME280;44020;50.890;15.796;2023-04-26T23:13:11;97822.20;;;3.15;63.14
58223;BME280;44020;50.890;15.796;2023-04-26T23:20:09;97825.64;;;3.03;63.24
58223;BME280;44020;50.890;15.796;2023-04-26T23:26:33;97829.25;;;2.91;63.40
58223;BME280;44020;50.890;15.796;2023-04-26T23:29:23;97834.50;;;2.86;63.59
58223;BME280;44020;50.890;15.796;2023-04-26T23:35:25;97841.41;;;2.80;63.71
58223;BME280;44020;50.890;15.796;2023-04-26T23:38:25;97838.24;;;2.76;63.65
58223;BME280;44020;50.890;15.796;2023-04-26T23:41:34;97841.89;;;2.72;63.82
58223;BME280;44020;50.890;15.796;2023-04-26T23:51:01;97840.38;;;2.60;64.03
58223;BME280;44020;50.890;15.796;2023-04-26T23:57:19;97847.61;;;2.54;64.13
